createdAt,value
2023-02-22T00:02:27.227Z,95592.00
2023-02-22T00:08:00.922Z,95579.00
2023-02-22T00:13:32.741Z,95574.00
2023-02-22T00:19:15.335Z,95577.00
2023-02-22T00:24:43.741Z,95578.00
2023-02-22T00:30:20.687Z,95569.00
2023-02-22T00:35:49.009Z,95571.00
2023-02-22T00:41:17.813Z,95574.00
2023-02-22T00:46:46.201Z,95560.00
2023-02-22T00:52:18.288Z,95560.00
2023-02-22T00:57:46.657Z,95560.00
2023-02-22T01:03:20.440Z,95553.00
2023-02-22T01:08:49.525Z,95544.00
2023-02-22T01:14:45.689Z,95549.00
2023-02-22T01:20:13.873Z,95548.00
2023-02-22T01:25:43.562Z,95545.00
2023-02-22T01:31:12.621Z,95539.00
2023-02-22T01:36:42.960Z,95524.00
2023-02-22T01:42:11.347Z,95542.00
2023-02-22T01:47:41.514Z,95532.00
2023-02-22T01:53:13.975Z,95531.00
2023-02-22T01:58:47.152Z,95525.00
2023-02-22T02:04:25.709Z,95521.00
2023-02-22T02:10:01.958Z,95508.00
2023-02-22T02:15:32.445Z,95502.00
2023-02-22T02:21:03.739Z,95497.00
2023-02-22T02:26:56.499Z,95494.00
2023-02-22T02:32:38.868Z,95490.00
2023-02-22T02:38:46.399Z,95471.00
2023-02-22T02:44:20.354Z,95471.00
2023-02-22T02:50:00.544Z,95463.00
2023-02-22T02:55:36.984Z,95476.00
2023-02-22T03:01:05.655Z,95460.00
2023-02-22T03:06:44.356Z,95449.00
2023-02-22T03:12:15.560Z,95434.00
2023-02-22T03:18:10.947Z,95437.00
2023-02-22T03:23:56.161Z,95434.00
2023-02-22T03:29:27.104Z,95425.00
2023-02-22T03:35:00.544Z,95430.00
2023-02-22T03:40:37.816Z,95440.00
2023-02-22T03:46:11.090Z,95444.00
2023-02-22T03:51:39.795Z,95450.00
2023-02-22T03:57:27.018Z,95463.00
2023-02-22T04:03:06.063Z,95460.00
2023-02-22T04:08:35.237Z,95464.00
2023-02-22T04:14:05.206Z,95463.00
2023-02-22T04:19:33.509Z,95462.00
2023-02-22T04:25:02.068Z,95449.00
2023-02-22T04:30:30.333Z,95439.00
2023-02-22T04:35:59.565Z,95440.00
2023-02-22T04:41:27.947Z,95440.00
2023-02-22T04:46:56.746Z,95434.00
2023-02-22T04:52:26.816Z,95428.00
2023-02-22T04:57:56.760Z,95430.00
2023-02-22T05:03:25.148Z,95426.00
2023-02-22T05:08:55.220Z,95430.00
2023-02-22T05:14:26.946Z,95418.00
2023-02-22T05:19:58.354Z,95414.00
2023-02-22T05:25:29.434Z,95414.00
2023-02-22T05:31:06.344Z,95412.00
2023-02-22T05:36:34.632Z,95412.00
2023-02-22T05:42:03.100Z,95405.00
2023-02-22T05:47:31.308Z,95408.00
2023-02-22T05:52:59.968Z,95405.00
2023-02-22T05:58:34.559Z,95414.00
2023-02-22T06:04:07.786Z,95415.00
2023-02-22T06:09:36.165Z,95398.00
2023-02-22T06:15:04.600Z,95409.00
2023-02-22T06:20:35.166Z,95409.00
2023-02-22T06:26:05.385Z,95408.00
2023-02-22T06:31:36.852Z,95409.00
2023-02-22T06:37:06.456Z,95417.00
2023-02-22T06:42:35.793Z,95424.00
2023-02-22T06:48:21.267Z,95423.00
2023-02-22T06:53:52.049Z,95431.00
2023-02-22T06:59:21.538Z,95433.00
2023-02-22T07:04:49.912Z,95445.00
2023-02-22T07:10:24.683Z,95448.00
2023-02-22T07:15:55.826Z,95435.00
2023-02-22T07:21:25.027Z,95432.00
2023-02-22T07:26:54.245Z,95435.00
2023-02-22T07:32:25.679Z,95443.00
2023-02-22T07:38:06.636Z,95435.00
2023-02-22T07:43:46.880Z,95437.00
2023-02-22T07:49:18.045Z,95424.00
2023-02-22T07:54:49.094Z,95418.00
2023-02-22T08:00:49.207Z,95420.00
2023-02-22T08:06:36.148Z,95418.00
2023-02-22T08:12:13.186Z,95424.00
2023-02-22T08:17:49.906Z,95416.00
2023-02-22T08:23:36.149Z,95410.00
2023-02-22T08:29:37.069Z,95411.00
2023-02-22T08:35:29.260Z,95410.00
2023-02-22T08:41:11.498Z,95404.00
2023-02-22T08:47:16.478Z,95395.00
2023-02-22T08:53:11.269Z,95396.00
2023-02-22T08:59:04.729Z,95403.00
2023-02-22T09:04:57.634Z,95403.00
2023-02-22T09:10:31.065Z,95392.00
2023-02-22T09:16:55.639Z,95399.00
2023-02-22T09:22:42.257Z,95393.00
2023-02-22T09:28:16.962Z,95386.00
2023-02-22T09:33:55.478Z,95392.00
2023-02-22T09:39:24.227Z,95381.00
2023-02-22T09:45:07.281Z,95379.00
2023-02-22T09:50:39.625Z,95380.00
2023-02-22T09:56:15.126Z,95389.00
2023-02-22T10:01:49.051Z,95380.00
2023-02-22T10:07:18.726Z,95376.00
2023-02-22T10:13:03.300Z,95366.00
2023-02-22T10:19:17.487Z,95363.00
2023-02-22T10:25:05.175Z,95365.00
2023-02-22T10:31:02.913Z,95361.00
2023-02-22T10:36:31.103Z,95353.00
2023-02-22T10:42:08.221Z,95348.00
2023-02-22T10:47:37.987Z,95352.00
2023-02-22T10:53:10.277Z,95345.00
2023-02-22T10:58:52.776Z,95341.00
2023-02-22T11:04:22.471Z,95334.00
2023-02-22T11:10:09.511Z,95332.00
2023-02-22T11:15:37.695Z,95328.00
2023-02-22T11:21:12.568Z,95324.00
2023-02-22T11:27:02.216Z,95307.00
2023-02-22T11:32:30.293Z,95303.00
2023-02-22T11:38:28.513Z,95304.00
2023-02-22T11:44:15.255Z,95289.00
2023-02-22T11:56:09.847Z,95288.00
2023-02-22T12:01:57.342Z,95279.00
2023-02-22T12:08:19.643Z,95276.00
2023-02-22T12:14:26.075Z,95268.00
2023-02-22T12:20:02.786Z,95261.00
2023-02-22T12:25:41.765Z,95259.00
2023-02-22T12:32:19.385Z,95253.00
2023-02-22T12:38:13.317Z,95256.00
2023-02-22T12:44:01.900Z,95252.00
2023-02-22T12:49:57.962Z,95251.00
2023-02-22T12:55:35.913Z,95249.00
2023-02-22T13:01:22.075Z,95243.00
2023-02-22T13:07:21.633Z,95242.00
2023-02-22T13:12:53.231Z,95230.00
2023-02-22T13:18:50.765Z,95228.00
2023-02-22T13:25:08.750Z,95224.00
2023-02-22T13:30:48.405Z,95201.00
2023-02-22T13:36:31.023Z,95213.00
2023-02-22T13:42:20.466Z,95201.00
2023-02-22T13:48:28.038Z,95207.00
2023-02-22T13:55:17.735Z,95204.00
2023-02-22T14:00:59.462Z,95203.00
2023-02-22T14:06:46.262Z,95196.00
2023-02-22T14:12:37.140Z,95203.00
2023-02-22T14:18:08.817Z,95197.00
2023-02-22T14:23:58.870Z,95196.00
2023-02-22T14:29:33.394Z,95191.00
2023-02-22T14:35:27.602Z,95206.00
2023-02-22T14:41:09.020Z,95178.00
2023-02-22T14:47:15.411Z,95197.00
2023-02-22T15:00:35.964Z,95203.00
2023-02-22T15:06:22.242Z,95194.00
2023-02-22T15:12:05.400Z,95196.00
2023-02-22T15:17:33.830Z,95195.00
2023-02-22T15:24:07.570Z,95205.00
2023-02-22T15:30:05.796Z,95197.00
2023-02-22T15:35:34.587Z,95196.00
2023-02-22T15:41:10.555Z,95190.00
2023-02-22T15:48:08.242Z,95201.00
2023-02-22T15:55:06.785Z,95197.00
2023-02-22T16:01:51.959Z,95193.00
2023-02-22T16:08:55.696Z,95204.00
2023-02-22T16:14:35.760Z,95206.00
2023-02-22T16:20:35.846Z,95206.00
2023-02-22T16:26:36.976Z,95211.00
2023-02-22T16:32:11.291Z,95214.00
2023-02-22T16:37:50.684Z,95219.00
2023-02-22T16:43:33.006Z,95212.00
2023-02-22T16:49:07.310Z,95226.00
2023-02-22T16:54:51.154Z,95230.00
2023-02-22T17:01:02.000Z,95228.00
2023-02-22T17:06:50.689Z,95241.00
2023-02-22T17:12:46.611Z,95238.00
2023-02-22T17:19:01.886Z,95243.00
2023-02-22T17:25:01.345Z,95247.00
2023-02-22T17:30:55.240Z,95246.00
2023-02-22T17:36:56.754Z,95260.00
2023-02-22T17:42:45.456Z,95259.00
2023-02-22T17:48:38.377Z,95253.00
2023-02-22T17:54:10.418Z,95259.00
2023-02-22T18:00:03.863Z,95256.00
2023-02-22T18:05:50.443Z,95256.00
2023-02-22T18:11:26.453Z,95249.00
2023-02-22T18:17:06.060Z,95249.00
2023-02-22T18:22:37.312Z,95259.00
2023-02-22T18:28:09.311Z,95249.00
2023-02-22T18:33:49.374Z,95247.00
2023-02-22T18:39:20.576Z,95240.00
2023-02-22T18:44:49.273Z,95243.00
2023-02-22T18:50:22.229Z,95254.00
2023-02-22T18:55:50.438Z,95246.00
2023-02-22T19:01:23.994Z,95246.00
2023-02-22T19:06:54.848Z,95251.00
2023-02-22T19:12:23.743Z,95242.00
2023-02-22T19:17:51.974Z,95247.00
2023-02-22T19:23:19.899Z,95243.00
2023-02-22T19:28:49.046Z,95246.00
2023-02-22T19:34:19.675Z,95253.00
2023-02-22T19:39:48.184Z,95266.00
2023-02-22T19:45:18.593Z,95265.00
2023-02-22T19:50:49.859Z,95267.00
2023-02-22T19:56:33.214Z,95272.00
2023-02-22T20:02:06.921Z,95277.00
2023-02-22T20:07:43.622Z,95284.00
2023-02-22T20:13:17.237Z,95275.00
2023-02-22T20:18:58.846Z,95282.00
2023-02-22T20:24:33.973Z,95284.00
2023-02-22T20:30:03.692Z,95276.00
2023-02-22T20:35:34.126Z,95280.00
2023-02-22T20:41:15.774Z,95293.00
2023-02-22T20:46:45.532Z,95291.00
2023-02-22T20:52:13.733Z,95287.00
2023-02-22T20:57:41.881Z,95290.00
2023-02-22T21:03:11.257Z,95288.00
2023-02-22T21:08:55.537Z,95283.00
2023-02-22T21:14:29.668Z,95283.00
2023-02-22T21:19:58.722Z,95284.00
2023-02-22T21:25:31.752Z,95272.00
2023-02-22T21:31:12.027Z,95281.00
2023-02-22T21:36:40.748Z,95283.00
2023-02-22T21:42:08.620Z,95284.00
2023-02-22T21:47:52.481Z,95280.00
2023-02-22T21:53:20.849Z,95281.00
2023-02-22T21:59:00.930Z,95286.00
2023-02-22T22:04:41.443Z,95294.00
2023-02-22T22:10:37.515Z,95290.00
2023-02-22T22:16:12.443Z,95278.00
2023-02-22T22:21:41.354Z,95273.00
2023-02-22T22:27:13.054Z,95274.00
2023-02-22T22:32:45.679Z,95273.00
2023-02-22T22:38:15.949Z,95274.00
2023-02-22T22:43:49.875Z,95271.00
2023-02-22T22:49:20.616Z,95277.00
2023-02-22T22:54:50.825Z,95278.00
2023-02-22T23:00:30.576Z,95277.00
2023-02-22T23:06:20.379Z,95286.00
2023-02-22T23:11:58.476Z,95290.00
2023-02-22T23:17:41.205Z,95293.00
2023-02-22T23:23:14.759Z,95293.00
2023-02-22T23:28:44.800Z,95293.00
2023-02-22T23:34:17.154Z,95296.00
2023-02-22T23:39:50.951Z,95293.00
2023-02-22T23:45:25.232Z,95302.00
2023-02-22T23:50:59.670Z,95294.00
2023-02-22T23:56:28.597Z,95303.00
